Virtual United States Air Force

 FLIGHT DETAILS
Pilot: A7424 Advait Berde Aircraft: F35A HL 5488 Distance: 865NM
Departure KIAB Arrival KLUF Duration 01:51
Validation Validated Type Charter Tail Number 13-5067
ZFW 29018 Block Fuel/Initial FOB 12,718/0 Flight Fuel 530
Passengers 0 Cargo 0 Alternate
Departure Time Cruise Speed Flight Level
Flight Type IFR Aircraft Type F35A Weight Unit Lbs
Date March-26-2026 Pilot Comments Network VATSIM
Crashed No Validator Comments Flight Rating 100

 ROUTE
ROUTE
REMARKS
 FLIGHT FAILURES
Crashed OK Beacon off & Engine Running Fail KIAS Above 250 below 10000 FT Fail
Lights OFF below 10000 FT Fail Lights ON above 10000 FT OK Stall OK
Overspeed OK Flight paused OK Refueling Fail
Slew detected OK Taxi & Taxi lights off Fail Take off & lights off OK
Landing & lights off OK Landed in not planned airport OK Taxi Speed OK
Wrong altimeter in Take off OK Wrong altimeter in Landing OK
 LANDING ANALYSIS
Landing wind 244º/0 kt Landing heading 186
Landing VS: -136.87 ft/min Landing IAS: 164.26 kt
Landing Force G 1.3 G Landing Bank -0.1
Landing Pitch 4.6 Landing Flaps 22
Navigation Lights OFF Landing Lights ON
Beacon Lights OFF Strobe Lights OFF
 FLIGHT MAP
 ALTITUDE CHART
 FLIGHT FINANCIAL REPORT
Charter Flight :KIAB - KLUF 0.00
TOTAL 0.00
 MAIN EVENTS
DATE EVENTIASALTITUDE
2026-03-26 21:05:29 SIM ACARS version 1.4.1221374
2026-03-26 21:05:29 BOARDING221374
2026-03-26 21:09:40 STARTING ENGINE 1 191374
2026-03-26 21:09:40 BEACON LIGHT OFF & ENGINE ON191374
2026-03-26 21:11:24 TAXI TO THE RWY 251373
2026-03-26 21:11:24 TAXING WITH TAXI LIGHTS OFF251373
2026-03-26 21:13:27 ROLLING FOR TAKE OFF611368
2026-03-26 21:13:29 REFUELING -0.52%851368
2026-03-26 21:13:38 TAKE OFF2191367
2026-03-26 21:13:40 GEAR UP2381382
2026-03-26 21:13:40 LIGHTS OFF BELOW 10000 ft2421385
2026-03-26 21:13:42 IAS ABOVE 250 KNOTS BELOW 10000 ft2621396
2026-03-26 21:13:49 REFUELING -1.48%2951560
2026-03-26 21:16:49 REFUELING -0.72%29611018
2026-03-26 21:17:09 REFUELING -1.82%48512131
2026-03-26 21:17:29 REFUELING -0.56%48313176
2026-03-26 21:26:48 CRUISE32038670
2026-03-26 21:26:49 REFUELING -0.71%32038671
2026-03-26 21:27:09 REFUELING -0.68%32038692
2026-03-26 21:27:29 REFUELING -0.68%32038699
2026-03-26 21:27:49 REFUELING -0.64%32038702
2026-03-26 21:28:09 REFUELING -0.68%32038699
2026-03-26 21:28:29 REFUELING -0.71%32038701
2026-03-26 21:28:49 REFUELING -0.64%32138699
2026-03-26 21:29:09 REFUELING -0.68%32038699
2026-03-26 21:29:29 REFUELING -0.71%32138702
2026-03-26 21:29:49 REFUELING -0.64%32138699
2026-03-26 22:15:49 REFUELING 57.21%30838794
2026-03-26 22:16:09 REFUELING -0.53%31838783
2026-03-26 22:16:29 REFUELING -0.67%31938810
2026-03-26 22:17:09 REFUELING -0.51%31938797
2026-03-26 22:17:29 REFUELING -0.71%31938809
2026-03-26 22:17:49 REFUELING -0.64%31938815
2026-03-26 22:18:09 REFUELING -0.67%31938815
2026-03-26 22:18:29 REFUELING -0.71%31938815
2026-03-26 22:18:49 REFUELING -0.64%31938817
2026-03-26 22:19:09 REFUELING -0.67%31938813
2026-03-26 22:19:29 REFUELING -0.67%31938815
2026-03-26 22:19:49 REFUELING -0.67%31938815
2026-03-26 22:20:09 REFUELING -0.67%31938821
2026-03-26 22:20:29 REFUELING -0.67%31938827
2026-03-26 22:20:49 REFUELING -0.64%31938821
2026-03-26 22:21:09 REFUELING -0.67%32038829
2026-03-26 22:21:29 REFUELING -0.71%31938832
2026-03-26 22:21:49 REFUELING -0.64%32038836
2026-03-26 22:22:09 REFUELING -0.67%31938831
2026-03-26 22:22:29 REFUELING -0.71%32038837
2026-03-26 22:22:49 REFUELING -0.64%32038835
2026-03-26 22:23:09 REFUELING -0.67%32038839
2026-03-26 22:23:29 REFUELING -0.68%32038842
2026-03-26 22:23:49 REFUELING -0.68%32038845
2026-03-26 22:24:09 REFUELING -0.66%32038842
2026-03-26 22:24:29 REFUELING -0.67%32038844
2026-03-26 22:24:49 REFUELING -0.64%32038844
2026-03-26 22:25:09 REFUELING -0.68%32038844
2026-03-26 22:25:29 REFUELING -0.71%32038845
2026-03-26 22:25:49 REFUELING -0.64%32038843
2026-03-26 22:26:09 REFUELING -0.68%32038840
2026-03-26 22:26:29 REFUELING -0.67%32038843
2026-03-26 22:26:49 REFUELING -0.67%32138849
2026-03-26 22:27:09 REFUELING -0.68%32138845
2026-03-26 22:27:29 REFUELING -0.68%32138843
2026-03-26 22:27:49 REFUELING -0.68%32138840
2026-03-26 22:28:09 REFUELING -0.64%32138843
2026-03-26 22:28:29 REFUELING -0.71%32138845
2026-03-26 22:28:49 REFUELING -0.64%32138841
2026-03-26 22:29:09 REFUELING -0.68%32138841
2026-03-26 22:29:29 REFUELING -0.71%32138845
2026-03-26 22:29:49 REFUELING -0.64%32138840
2026-03-26 22:30:09 REFUELING -0.68%32138840
2026-03-26 22:30:29 REFUELING -0.68%32138842
2026-03-26 22:30:49 REFUELING -0.68%32138838
2026-03-26 22:31:09 REFUELING -0.68%32238838
2026-03-26 22:31:29 REFUELING -0.68%32238840
2026-03-26 22:31:49 REFUELING -0.64%32238842
2026-03-26 22:32:09 REFUELING -0.68%32238839
2026-03-26 22:32:29 REFUELING -0.71%32238836
2026-03-26 22:32:49 REFUELING -0.64%32238836
2026-03-26 22:33:09 REFUELING -0.68%32238837
2026-03-26 22:33:29 REFUELING -0.68%32238841
2026-03-26 22:33:49 REFUELING -0.68%32238845
2026-03-26 22:34:09 REFUELING -0.68%32338837
2026-03-26 22:34:29 REFUELING -0.68%32338832
2026-03-26 22:34:49 REFUELING -0.68%32338831
2026-03-26 22:35:09 REFUELING -0.68%32338833
2026-03-26 22:35:29 REFUELING -0.67%32338831
2026-03-26 22:35:49 REFUELING -0.64%32438825
2026-03-26 22:36:09 REFUELING -0.68%32438833
2026-03-26 22:36:29 REFUELING -0.70%32438831
2026-03-26 22:36:49 REFUELING -0.65%32438832
2026-03-26 22:37:09 REFUELING -0.66%32438832
2026-03-26 22:37:29 REFUELING -0.69%32438830
2026-03-26 22:37:49 REFUELING -0.64%32538829
2026-03-26 22:38:09 REFUELING -0.68%33338779
2026-03-26 22:38:29 DESCEND34937911
2026-03-26 22:47:59 CRUISE34812465
2026-03-26 22:48:49 DESCEND35011384
2026-03-26 22:52:09 CRUISE2494658
2026-03-26 22:53:19 DESCEND2493862
2026-03-26 22:54:09 CRUISE2503663
2026-03-26 22:54:49 DESCEND2492935
2026-03-26 22:54:57 GEAR DOWN2482848
2026-03-26 22:55:39 CRUISE2492628
2026-03-26 22:56:09 DESCEND2111954
2026-03-26 22:56:59 LANDING1841078
2026-03-26 22:57:09 GEAR UP2151092
2026-03-26 22:57:11 TAKE OFF2361119
2026-03-26 22:57:49 DESCEND1482399
2026-03-26 22:58:09 REFUELING -0.60%2932317
2026-03-26 22:58:49 CLIMBING2263041
2026-03-26 22:58:55 GEAR DOWN2063144
2026-03-26 22:59:59 DESCEND2102026
2026-03-26 23:00:36 LANDING1591078
2026-03-26 23:00:45 GEAR UP1821078
2026-03-26 23:00:49 TAKE OFF2091119
2026-03-26 23:01:09 REFUELING -0.76%2291645
2026-03-26 23:01:29 REFUELING -0.77%2271932
2026-03-26 23:01:49 REFUELING -0.69%2352324
2026-03-26 23:01:58 GEAR DOWN2262541
2026-03-26 23:02:09 REFUELING -0.60%2102649
2026-03-26 23:02:29 REFUELING -0.63%1942798
2026-03-26 23:02:49 REFUELING -0.59%1982968
2026-03-26 23:03:09 REFUELING -0.90%2502715
2026-03-26 23:03:19 DESCEND2242590
2026-03-26 23:03:29 REFUELING -0.76%2172320
2026-03-26 23:03:49 REFUELING -0.56%2001813
2026-03-26 23:04:27 LANDING1261078
2026-03-26 23:05:01 GEAR UP2141104
2026-03-26 23:05:02 TAKE OFF2181116
2026-03-26 23:05:09 REFUELING -0.90%1971255
2026-03-26 23:06:12 GEAR DOWN2442231
2026-03-26 23:06:49 CRUISE2132315
2026-03-26 23:08:09 DESCEND2211417
2026-03-26 23:08:31 LANDING1641075
2026-03-26 23:09:10 TAXI TO THE GATE201077
2026-03-26 23:13:11 STOPPING ENGINE 1 01079
 ACARS DATA
DATE IASGSALTITUDEFUEL CONSUMED OATFLIGHT STATUS
2026-03-26 21:06:292301374123BOARDING
2026-03-26 21:07:292201374123BOARDING
2026-03-26 21:08:292301374123BOARDING
2026-03-26 21:09:292001374223BOARDING
2026-03-26 21:10:2919013743423BOARDING
2026-03-26 21:11:29301213727323TAXI TO THE RWY
2026-03-26 21:12:2920137011123TAXI TO THE RWY
2026-03-26 21:13:298469136721523TAXI TO THE RWY
2026-03-26 21:14:29241240376061124CLIMBING
2026-03-26 21:15:29249255689081820CLIMBING
2026-03-26 21:16:292482669976101313CLIMBING
2026-03-26 21:17:294835571317615704CLIMBING
2026-03-26 21:18:29457546162021826-3CLIMBING
2026-03-26 21:19:29434538192102061-10CLIMBING
2026-03-26 21:20:29411528222382272-17CLIMBING
2026-03-26 21:21:29387517252602467-25CLIMBING
2026-03-26 21:22:29365502282632645-32CLIMBING
2026-03-26 21:23:29341487312692809-40CLIMBING
2026-03-26 21:24:29320478342772960-48CLIMBING
2026-03-26 21:25:29299470372823106-54CLIMBING
2026-03-26 21:26:29292471386653234-57CLIMBING
2026-03-26 21:27:29320518386993599-57CRUISE
2026-03-26 21:28:29320518387013965-57CRUISE
2026-03-26 21:29:29320519387014331-57CRUISE
2026-03-26 21:30:29302488387064563-57CRUISE
2026-03-26 21:31:29307496387004687-57CRUISE
2026-03-26 21:32:29308497387034810-57CRUISE
2026-03-26 21:33:29308496387114932-57CRUISE
2026-03-26 21:34:29308495387115052-57CRUISE
2026-03-26 21:35:29308495387105174-57CRUISE
2026-03-26 21:36:29308494387125296-57CRUISE
2026-03-26 21:37:29308493387135417-57CRUISE
2026-03-26 21:38:29308492387135537-57CRUISE
2026-03-26 21:39:29308491387135658-57CRUISE
2026-03-26 21:40:29308491387135780-57CRUISE
2026-03-26 21:41:29308499387335902-57CRUISE
2026-03-26 21:42:29308496387366023-57CRUISE
2026-03-26 21:43:29308496387406145-57CRUISE
2026-03-26 21:44:29308497387456266-57CRUISE
2026-03-26 21:45:29308497387506386-57CRUISE
2026-03-26 21:46:29308498387636507-57CRUISE
2026-03-26 21:47:29308498387676628-57CRUISE
2026-03-26 21:48:29308498387716747-57CRUISE
2026-03-26 21:49:29308497387796867-57CRUISE
2026-03-26 21:50:29308496387836986-57CRUISE
2026-03-26 21:51:29308496387867107-57CRUISE
2026-03-26 21:52:29308495387917225-57CRUISE
2026-03-26 21:53:29308495387947345-57CRUISE
2026-03-26 21:54:29307496388097466-57CRUISE
2026-03-26 21:55:29308496388197585-57CRUISE
2026-03-26 21:56:29308496388257703-57CRUISE
2026-03-26 21:57:29308496388297823-57CRUISE
2026-03-26 21:58:29308497388327943-57CRUISE
2026-03-26 21:59:29308497388408062-57CRUISE
2026-03-26 22:00:29308497388418180-57CRUISE
2026-03-26 22:01:29307495387838308-57CRUISE
2026-03-26 22:02:29308500388028458-57CRUISE
2026-03-26 22:03:29308501388178603-57CRUISE
2026-03-26 22:04:29308501388218749-57CRUISE
2026-03-26 22:05:29308501388218896-56CRUISE
2026-03-26 22:06:29308501388259041-56CRUISE
2026-03-26 22:07:29307502388329188-56CRUISE
2026-03-26 22:08:29308502388329334-56CRUISE
2026-03-26 22:09:29308503388319480-56CRUISE
2026-03-26 22:10:29308503388269624-55CRUISE
2026-03-26 22:11:29308503388319770-55CRUISE
2026-03-26 22:12:29308503388349915-55CRUISE
2026-03-26 22:13:293085003881710057-55CRUISE
2026-03-26 22:14:293084983881010201-55CRUISE
2026-03-26 22:15:293084963879910346-55CRUISE
2026-03-26 22:16:2931851638810243-55CRUISE
2026-03-26 22:17:2931851638809523-56CRUISE
2026-03-26 22:18:2931851838814886-56CRUISE
2026-03-26 22:19:29319519388141251-56CRUISE
2026-03-26 22:20:29319522388261609-57CRUISE
2026-03-26 22:21:29319525388321975-57CRUISE
2026-03-26 22:22:29319528388372340-57CRUISE
2026-03-26 22:23:29319529388422705-57CRUISE
2026-03-26 22:24:29319530388433062-56CRUISE
2026-03-26 22:25:29320531388443427-56CRUISE
2026-03-26 22:26:29320531388423792-56CRUISE
2026-03-26 22:27:29320532388434151-56CRUISE
2026-03-26 22:28:29320532388454517-56CRUISE
2026-03-26 22:29:29321532388454882-56CRUISE
2026-03-26 22:30:29321533388425248-56CRUISE
2026-03-26 22:31:29321533388395608-56CRUISE
2026-03-26 22:32:29321534388365974-56CRUISE
2026-03-26 22:33:29322534388416341-56CRUISE
2026-03-26 22:34:29322535388326707-56CRUISE
2026-03-26 22:35:29323535388307067-57CRUISE
2026-03-26 22:36:29323536388307433-57CRUISE
2026-03-26 22:37:29324539388297794-57CRUISE
2026-03-26 22:38:29348565379008091-55DESCEND
2026-03-26 22:39:29350552349048291-48DESCEND
2026-03-26 22:40:29352530319628416-40DESCEND
2026-03-26 22:41:29350502289918509-32DESCEND
2026-03-26 22:42:29350477260028599-24DESCEND
2026-03-26 22:43:29350458230148688-17DESCEND
2026-03-26 22:44:29350443200468780-9DESCEND
2026-03-26 22:45:29351430170798876-3DESCEND
2026-03-26 22:46:293494161410389590DESCEND
2026-03-26 22:47:293524101250790604DESCEND
2026-03-26 22:48:293534131231091835CRUISE
2026-03-26 22:49:293033569530924411DESCEND
2026-03-26 22:50:292683026578928116DESCEND
2026-03-26 22:51:292502764769934920DESCEND
2026-03-26 22:52:292492744643945220CRUISE
2026-03-26 22:53:292482673739953822DESCEND
2026-03-26 22:54:292542693582964723CRUISE
2026-03-26 22:55:292492652633977424DESCEND
2026-03-26 22:56:292012111576990326DESCEND
2026-03-26 22:57:2926327618041007626CLIMBING
2026-03-26 22:58:2932134125231025825DESCEND
2026-03-26 22:59:2921223026001036725CLIMBING
2026-03-26 23:00:2918219011611049926DESCEND
2026-03-26 23:01:2922723819181083926CLIMBING
2026-03-26 23:02:2919521127921118524CLIMBING
2026-03-26 23:03:2921722823191159525DESCEND
2026-03-26 23:04:2911812310761183226LANDED
2026-03-26 23:05:2924725916011208326CLIMBING
2026-03-26 23:06:2919220523211221325CLIMBING
2026-03-26 23:07:2923825520731239726CRUISE
2026-03-26 23:08:2917117810791253426DESCEND
2026-03-26 23:09:293310771257226TAXI TO THE GATE
2026-03-26 23:10:290010781261026TAXI TO THE GATE
2026-03-26 23:11:29202110751264926TAXI TO THE GATE
2026-03-26 23:12:296710781268926TAXI TO THE GATE

Neither the Department of the Air Force, nor any other component of the Department of Defense or Federal Government has approved, endorsed, or authorized this promotion, activity, or organization. Virtual United States Air Force organization is in no way affiliated with the Department of Defense, Department of the Air Force, or any other federal or government entity. Virtual United States Air Force is a group of flight simulation enthusiasts with the common interest of promoting enjoyment and cameraderie through the simulation of military operations and procedures utilizing several flight simulation platforms.

Copyright © vUSAF, LLC // 2018-2026 All Rights Reserved